Time;durP1;ratioP1;P1;durP2;ratioP2;P2;SDS_P1;SDS_P2;PMS_P1;PMS_P2;Temp;Humidity;BMP_temperature;BMP_pressure;BME280_temperature;BME280_humidity;BME280_pressure;Samples;Min_cycle;Max_cycle;Signal;HPM_P1;HPM_P2
2023/08/07 00:02:19;;;;;;;14.45;1.02;;;11.60;99.90;;;11.20;100.00;97632.78;4981450;28;20059;-77
2023/08/07 00:04:46;;;;;;;8.95;0.90;;;11.60;99.90;;;11.22;100.00;97643.94;4979616;28;20054;-77
2023/08/07 00:07:13;;;;;;;9.95;1.35;;;11.50;99.90;;;11.12;100.00;97634.88;4982287;28;20046;-77
2023/08/07 00:09:41;;;;;;;3.58;1.13;;;11.50;99.90;;;11.00;100.00;97633.66;4979345;28;20141;-78
2023/08/07 00:12:08;;;;;;;4.38;0.82;;;11.50;99.90;;;10.94;100.00;97627.88;4978556;28;20091;-77
2023/08/07 00:14:35;;;;;;;3.65;0.82;;;11.50;99.90;;;11.01;100.00;97637.91;4982249;28;20069;-77
2023/08/07 00:17:04;;;;;;;6.32;1.00;;;11.40;99.90;;;11.06;100.00;97642.91;4979177;28;20046;-78
2023/08/07 00:19:31;;;;;;;6.72;1.13;;;11.40;99.90;;;11.04;100.00;97647.34;4982899;28;20057;-77
2023/08/07 00:21:58;;;;;;;5.50;0.80;;;11.50;99.90;;;10.96;100.00;97649.44;4984920;28;20058;-77
2023/08/07 00:24:25;;;;;;;5.97;1.35;;;11.50;99.90;;;10.93;100.00;97645.22;4984390;28;20046;-77
2023/08/07 00:27:00;;;;;;;5.50;1.13;;;11.40;99.90;;;10.92;100.00;97663.44;4984093;28;20046;-78
2023/08/07 00:29:27;;;;;;;8.23;1.15;;;11.50;99.90;;;11.04;100.00;97666.38;4986480;28;20418;-78
2023/08/07 00:31:54;;;;;;;5.22;0.93;;;11.40;99.90;;;10.91;100.00;97654.81;4987936;28;20090;-77
2023/08/07 00:34:21;;;;;;;6.95;1.27;;;11.40;99.90;;;10.95;100.00;97668.50;4984874;28;20540;-77
2023/08/07 00:36:48;;;;;;;10.27;1.00;;;11.40;99.90;;;11.01;100.00;97669.09;4982215;28;20441;-77
2023/08/07 00:39:15;;;;;;;7.15;1.10;;;11.40;99.90;;;11.05;100.00;97662.03;4983514;28;20046;-77
2023/08/07 00:41:42;;;;;;;5.10;1.10;;;11.40;99.90;;;10.96;100.00;97662.41;4986800;28;20050;-78
2023/08/07 00:44:09;;;;;;;5.60;0.95;;;11.30;99.90;;;10.89;100.00;97669.63;4980287;28;20584;-78
2023/08/07 00:46:39;;;;;;;6.22;1.10;;;11.40;99.90;;;10.93;100.00;97659.97;4986619;28;20046;-77
2023/08/07 00:49:09;;;;;;;5.28;1.00;;;11.40;99.90;;;10.82;100.00;97655.22;4988015;28;20074;-78
2023/08/07 00:51:37;;;;;;;6.35;1.00;;;11.40;99.90;;;10.85;100.00;97657.66;4982747;28;20046;-77
2023/08/07 00:54:06;;;;;;;6.47;0.90;;;11.40;99.90;;;10.78;100.00;97653.66;4988335;28;20061;-77
2023/08/07 00:56:33;;;;;;;4.85;1.42;;;11.40;99.90;;;10.82;100.00;97655.22;4985264;28;20082;-77
2023/08/07 00:59:01;;;;;;;4.22;0.95;;;11.30;99.90;;;10.82;100.00;97655.22;4986128;28;20508;-77
2023/08/07 01:01:29;;;;;;;6.03;1.13;;;11.30;99.90;;;10.70;100.00;97646.19;4984056;28;20054;-77
2023/08/07 01:03:56;;;;;;;11.55;1.38;;;11.30;99.90;;;10.60;100.00;97666.47;4987509;28;20097;-77
2023/08/07 01:06:23;;;;;;;7.47;1.30;;;11.30;99.90;;;10.67;100.00;97677.44;4984156;28;20113;-77
2023/08/07 01:08:50;;;;;;;9.20;1.30;;;11.30;99.90;;;10.78;100.00;97669.22;4985499;28;20075;-77
2023/08/07 01:11:45;;;;;;;7.82;1.15;;;11.30;99.90;;;10.78;100.00;97683.03;4982577;28;20612;-77
2023/08/07 01:14:21;;;;;;;5.90;1.17;;;11.30;99.90;;;10.87;100.00;97674.88;4979892;28;20050;-76
2023/08/07 01:17:04;;;;;;;6.93;1.10;;;11.30;99.90;;;10.96;100.00;97671.03;4987079;28;20395;-78
2023/08/07 01:19:32;;;;;;;9.13;1.30;;;11.30;99.90;;;10.90;100.00;97671.28;4979127;28;20125;-77
2023/08/07 01:22:06;;;;;;;4.93;1.10;;;11.40;99.90;;;10.92;100.00;97674.69;4984167;28;20053;-78
2023/08/07 01:24:43;;;;;;;6.35;1.23;;;11.40;99.90;;;10.82;100.00;97655.22;4984725;28;20590;-77
2023/08/07 01:27:19;;;;;;;6.97;1.52;;;11.40;99.90;;;10.84;100.00;97667.22;4987721;28;20070;-78
2023/08/07 01:30:05;;;;;;;6.97;1.80;;;11.40;99.90;;;10.75;100.00;97683.19;4989310;28;20058;-77
2023/08/07 01:33:10;;;;;;;4.72;0.90;;;11.30;99.90;;;10.66;100.00;97670.59;4987756;28;20138;-78
2023/08/07 01:35:46;;;;;;;6.53;1.30;;;11.30;99.90;;;10.53;100.00;97687.56;4984616;28;20073;-77
2023/08/07 01:38:14;;;;;;;11.52;1.80;;;11.20;99.90;;;10.61;100.00;97686.34;4985593;28;20050;-78
2023/08/07 01:40:44;;;;;;;6.95;1.02;;;11.20;99.90;;;10.55;100.00;97690.94;4982286;28;20065;-78
2023/08/07 01:43:11;;;;;;;8.43;1.27;;;11.20;99.90;;;10.46;100.00;97687.81;4984700;28;20042;-77
2023/08/07 01:45:38;;;;;;;16.90;2.00;;;11.10;99.90;;;10.48;100.00;97694.69;4979758;28;20810;-78
2023/08/07 01:48:05;;;;;;;5.50;1.73;;;11.00;99.90;;;10.50;100.00;97695.50;4989105;28;20062;-77
2023/08/07 01:50:33;;;;;;;12.05;2.10;;;11.00;99.90;;;10.40;100.00;97685.47;4985289;28;20428;-77
2023/08/07 01:53:02;;;;;;;10.40;3.45;;;11.00;99.90;;;10.41;100.00;97687.16;4983985;28;20466;-77
2023/08/07 01:55:29;;;;;;;8.15;1.33;;;11.00;99.90;;;10.37;100.00;97708.94;4980894;28;20053;-77
2023/08/07 01:57:56;;;;;;;7.00;1.77;;;11.00;99.90;;;10.39;100.00;97706.28;4983844;28;20113;-78
2023/08/07 02:00:23;;;;;;;9.32;1.20;;;11.00;99.90;;;10.40;100.00;97719.22;4987901;28;20475;-77
2023/08/07 02:02:50;;;;;;;3.80;1.38;;;10.90;99.90;;;10.52;100.00;97709.25;4986478;28;20050;-77
2023/08/07 02:05:18;;;;;;;6.82;1.30;;;11.00;99.90;;;10.40;100.00;97705.38;4986959;28;20105;-77
2023/08/07 02:07:45;;;;;;;3.85;1.08;;;11.00;99.90;;;10.53;100.00;97710.91;4981898;28;20065;-77
2023/08/07 02:10:12;;;;;;;6.72;1.70;;;10.90;99.90;;;10.39;100.00;97716.66;4980741;28;20060;-76
2023/08/07 02:12:39;;;;;;;5.22;1.38;;;10.90;99.90;;;10.41;100.00;97714.84;4977343;28;20461;-77
2023/08/07 02:15:07;;;;;;;8.93;1.45;;;10.90;99.90;;;10.45;100.00;97711.25;4980787;28;20471;-77
2023/08/07 02:17:37;;;;;;;6.97;1.63;;;10.90;99.90;;;10.42;100.00;97714.81;4986054;28;20050;-77
2023/08/07 02:20:06;;;;;;;6.90;1.48;;;10.90;99.90;;;10.33;100.00;97722.09;4981049;28;20476;-77
2023/08/07 02:22:33;;;;;;;11.43;1.70;;;10.90;99.90;;;10.40;100.00;97718.34;4984722;28;20050;-76
2023/08/07 02:25:00;;;;;;;6.20;1.33;;;10.90;99.90;;;10.36;100.00;97719.41;4985568;28;20047;-78
2023/08/07 02:27:27;;;;;;;7.28;1.48;;;10.90;99.90;;;10.40;100.00;97731.31;4982163;28;20050;-77
2023/08/07 02:29:54;;;;;;;6.65;1.20;;;10.90;99.90;;;10.43;100.00;97734.66;4983793;28;20126;-77
2023/08/07 02:32:21;;;;;;;12.23;1.70;;;10.90;99.90;;;10.33;100.00;97725.56;4983719;28;20088;-77
2023/08/07 02:34:48;;;;;;;12.65;2.20;;;11.00;99.90;;;10.44;100.00;97738.91;4983916;28;20055;-77
2023/08/07 02:37:16;;;;;;;6.00;1.63;;;11.00;99.90;;;10.48;100.00;97736.22;4988641;28;20073;-76
2023/08/07 02:39:44;;;;;;;5.93;1.55;;;11.00;99.90;;;10.48;100.00;97733.63;4982992;28;20054;-77
2023/08/07 02:42:11;;;;;;;9.10;1.80;;;11.00;99.90;;;10.43;100.00;97726.03;4998369;28;20055;-77
2023/08/07 02:44:38;;;;;;;9.48;1.60;;;11.00;99.90;;;10.43;100.00;97729.47;4983299;28;20050;-78
2023/08/07 02:47:06;;;;;;;8.35;1.60;;;11.00;99.90;;;10.60;100.00;97738.31;4984131;28;20050;-77
2023/08/07 02:49:33;;;;;;;4.85;1.42;;;10.90;99.90;;;10.44;100.00;97725.09;4984269;28;20046;-77
2023/08/07 02:52:00;;;;;;;11.50;1.65;;;11.00;99.90;;;10.55;100.00;97732.47;4983675;28;20050;-78
2023/08/07 02:54:27;;;;;;;8.93;1.63;;;11.00;99.90;;;10.59;100.00;97728.84;4986068;28;20046;-76
2023/08/07 02:56:54;;;;;;;9.10;1.50;;;11.00;99.90;;;10.61;100.00;97735.66;4984177;28;20050;-76
2023/08/07 02:59:21;;;;;;;7.38;1.20;;;11.00;99.90;;;10.55;100.00;97743.69;4983941;28;20092;-77
2023/08/07 03:01:50;;;;;;;5.88;1.50;;;11.00;99.90;;;10.51;100.00;97731.75;4983495;28;20086;-77
2023/08/07 03:04:17;;;;;;;8.27;1.40;;;11.00;99.90;;;10.58;100.00;97732.34;4974467;28;20070;-78
2023/08/07 03:06:44;;;;;;;5.88;1.00;;;11.00;99.90;;;10.59;100.00;97741.84;4985269;28;20783;-77
2023/08/07 03:09:11;;;;;;;6.43;1.58;;;10.90;99.90;;;10.57;100.00;97730.66;4987408;28;20096;-77
2023/08/07 03:11:38;;;;;;;9.73;1.90;;;11.00;99.90;;;10.63;100.00;97738.22;4983222;28;20078;-78
2023/08/07 03:14:05;;;;;;;9.65;1.52;;;11.00;99.90;;;10.56;100.00;97741.94;4982817;28;20058;-78
2023/08/07 03:16:32;;;;;;;9.70;1.60;;;11.00;99.90;;;10.48;100.00;97733.63;4986891;28;20409;-77
2023/08/07 03:18:59;;;;;;;9.32;2.00;;;11.00;99.90;;;10.49;100.00;97746.56;4983448;28;20103;-78
2023/08/07 03:21:26;;;;;;;8.75;1.90;;;10.90;99.90;;;10.54;100.00;97736.00;4985329;28;20095;-77
2023/08/07 03:23:53;;;;;;;7.45;1.65;;;11.00;99.90;;;10.46;100.00;97720.69;4981025;28;20090;-77
2023/08/07 03:26:20;;;;;;;4.95;1.10;;;11.00;99.90;;;10.51;100.00;97720.53;4986062;28;20050;-76
2023/08/07 03:28:55;;;;;;;9.73;1.70;;;11.00;99.90;;;10.47;100.00;97725.00;4982303;28;20150;-77
2023/08/07 03:31:22;;;;;;;12.43;1.88;;;11.00;99.90;;;10.42;100.00;97725.19;4983952;28;20564;-77
2023/08/07 03:33:49;;;;;;;6.18;1.50;;;11.00;99.90;;;10.48;100.00;97731.03;4984284;28;20914;-77
2023/08/07 03:36:16;;;;;;;8.77;1.88;;;11.00;99.90;;;10.52;100.00;97741.22;4987176;28;20082;-77
2023/08/07 03:38:43;;;;;;;7.32;2.13;;;11.00;99.90;;;10.60;100.00;97744.34;4986111;28;20113;-77
2023/08/07 03:41:11;;;;;;;5.25;1.58;;;11.00;99.90;;;10.46;100.00;97739.72;4981423;28;20366;-77
2023/08/07 03:43:38;;;;;;;8.15;2.00;;;11.00;99.90;;;10.56;100.00;97745.41;4978290;28;20100;-77
2023/08/07 03:46:05;;;;;;;10.35;1.80;;;11.00;99.90;;;10.56;100.00;97740.22;4986535;28;20046;-77
2023/08/07 03:48:32;;;;;;;14.60;2.35;;;11.00;99.90;;;10.49;100.00;97736.16;4985397;28;20046;-77
2023/08/07 03:51:08;;;;;;;4.13;1.33;;;11.00;99.90;;;10.50;100.00;97756.00;4982939;28;20047;-78
2023/08/07 03:53:35;;;;;;;12.35;1.65;;;11.00;99.90;;;10.62;100.00;97755.50;4983911;28;20967;-78
2023/08/07 03:56:03;;;;;;;5.15;1.58;;;11.00;99.90;;;10.52;100.00;97763.75;4985613;28;20763;-77
2023/08/07 03:58:30;;;;;;;7.38;1.80;;;11.00;99.90;;;10.54;100.00;97749.81;4973387;28;20100;-77
2023/08/07 04:00:57;;;;;;;9.55;1.55;;;11.00;99.90;;;10.45;100.00;97748.41;4988716;28;20616;-77
2023/08/07 04:03:24;;;;;;;6.43;1.80;;;11.00;99.90;;;10.49;100.00;97745.69;4988396;28;20065;-76
2023/08/07 04:05:57;;;;;;;3.08;1.20;;;11.00;99.90;;;10.55;100.00;97745.44;4969154;28;20146;-75
2023/08/07 04:08:24;;;;;;;11.40;1.52;;;11.00;99.90;;;10.56;100.00;97749.72;4987534;28;20046;-75
2023/08/07 04:11:05;;;;;;;5.93;1.77;;;11.00;99.90;;;10.59;100.00;97749.63;4984023;28;20065;-77
2023/08/07 04:13:32;;;;;;;10.93;1.65;;;11.00;99.90;;;10.41;100.00;97749.44;4988824;28;20050;-76
2023/08/07 04:16:01;;;;;;;10.20;1.88;;;11.00;99.90;;;10.36;100.00;97758.31;4982579;28;20058;-76
2023/08/07 04:18:28;;;;;;;8.18;1.70;;;11.00;99.90;;;10.40;100.00;97757.25;4988635;28;20500;-75
2023/08/07 04:20:56;;;;;;;7.45;1.65;;;11.10;99.90;;;10.51;100.00;97757.69;4987312;28;20134;-76
2023/08/07 04:23:24;;;;;;;5.63;1.45;;;11.00;99.90;;;10.50;100.00;97753.41;4984000;28;20563;-77
2023/08/07 04:25:52;;;;;;;5.50;1.63;;;11.00;99.90;;;10.58;100.00;97750.50;4989652;28;20046;-77
2023/08/07 04:28:20;;;;;;;6.32;1.63;;;11.00;99.90;;;10.47;100.00;97737.97;4983022;28;20046;-75
2023/08/07 04:30:52;;;;;;;7.88;1.42;;;11.00;99.90;;;10.56;100.00;97753.19;4991207;28;20054;-75
2023/08/07 04:33:21;;;;;;;3.88;1.20;;;11.00;99.90;;;10.52;100.00;97735.19;4986238;28;20058;-75
2023/08/07 04:35:48;;;;;;;7.43;1.70;;;11.00;99.90;;;10.54;100.00;97748.97;4986936;28;20086;-76
2023/08/07 04:38:17;;;;;;;6.35;1.70;;;11.00;99.90;;;10.56;100.00;97748.00;4986801;28;20046;-76
2023/08/07 04:40:48;;;;;;;7.10;1.55;;;11.00;99.90;;;10.62;100.00;97752.09;4983309;28;20051;-77
2023/08/07 04:43:20;;;;;;;6.97;1.70;;;11.00;99.90;;;10.60;100.00;97753.88;4983901;28;20050;-76
2023/08/07 04:45:50;;;;;;;5.88;1.42;;;11.00;99.90;;;10.70;100.00;97754.34;4983769;28;20490;-77
2023/08/07 04:48:17;;;;;;;12.82;2.10;;;11.00;99.90;;;10.56;100.00;97749.72;4986495;28;20109;-77
2023/08/07 04:50:45;;;;;;;7.65;1.45;;;11.10;99.90;;;10.66;100.00;97761.44;4989223;28;20050;-75
2023/08/07 04:53:12;;;;;;;5.80;1.58;;;11.10;99.90;;;10.71;100.00;97762.09;4990253;28;20469;-77
2023/08/07 04:55:39;;;;;;;4.95;1.23;;;11.10;99.90;;;10.68;100.00;97754.44;4987848;28;20046;-77
2023/08/07 04:58:06;;;;;;;13.68;1.80;;;11.10;99.90;;;10.82;100.00;97769.47;4969018;28;20482;-77
2023/08/07 05:00:33;;;;;;;5.10;1.40;;;11.20;99.90;;;10.82;100.00;97765.09;4981873;28;20050;-77
2023/08/07 05:03:01;;;;;;;4.40;1.27;;;11.30;99.90;;;10.77;100.00;97766.22;4982043;28;20073;-78
2023/08/07 05:05:28;;;;;;;7.05;1.65;;;11.30;99.90;;;10.76;100.00;97765.34;4980469;28;20046;-78
2023/08/07 05:07:58;;;;;;;7.35;1.63;;;11.30;99.90;;;10.81;100.00;97767.75;4988626;28;20054;-77
2023/08/07 05:10:27;;;;;;;6.93;1.42;;;11.20;99.90;;;10.96;100.00;97763.72;4983016;28;20043;-77
2023/08/07 05:12:56;;;;;;;5.18;1.20;;;11.20;99.90;;;10.92;100.00;97767.31;4985015;28;20100;-77
2023/08/07 05:15:24;;;;;;;7.82;1.52;;;11.30;99.90;;;10.82;100.00;97761.66;4980516;28;20114;-77
2023/08/07 05:17:52;;;;;;;8.55;1.73;;;11.30;99.90;;;10.85;100.00;97774.53;4986726;28;20050;-77
2023/08/07 05:20:19;;;;;;;6.28;1.77;;;11.20;99.90;;;10.83;100.00;97771.13;4971892;28;20595;-77
2023/08/07 05:22:46;;;;;;;6.00;1.63;;;11.10;99.90;;;10.87;100.00;97768.34;4984595;28;20137;-76
2023/08/07 05:25:16;;;;;;;7.43;1.77;;;11.10;99.90;;;10.79;100.00;97773.03;4989190;28;20508;-77
2023/08/07 05:27:47;;;;;;;10.63;1.50;;;11.20;99.90;;;10.71;100.00;97772.47;4981879;28;20098;-77
2023/08/07 05:30:15;;;;;;;9.85;2.00;;;11.10;99.90;;;10.56;100.00;97776.53;4981996;28;20057;-76
2023/08/07 05:32:42;;;;;;;6.55;1.77;;;11.10;99.90;;;10.55;100.00;97780.03;4989200;28;20042;-77
2023/08/07 05:35:10;;;;;;;6.30;1.95;;;11.00;99.90;;;10.70;100.00;97778.59;4986525;28;20050;-77
2023/08/07 06:21:07;;;;;;;4.60;1.70;;;11.60;99.90;;;11.79;100.00;97766.22;5069931;27;20519;-78
2023/08/07 06:23:34;;;;;;;5.43;1.58;;;12.20;99.90;;;11.83;100.00;97765.16;5023173;28;20057;-78
2023/08/07 06:26:04;;;;;;;6.13;1.33;;;12.20;99.90;;;11.75;100.00;97758.63;5039086;28;20509;-78
2023/08/07 06:28:33;;;;;;;11.07;1.98;;;12.10;99.90;;;11.62;100.00;97776.50;5054318;28;20111;-78
2023/08/07 06:31:08;;;;;;;6.20;1.50;;;12.10;99.90;;;11.66;100.00;97771.09;5037193;28;20072;-78
2023/08/07 06:33:35;;;;;;;7.40;1.55;;;12.10;99.90;;;11.74;100.00;97778.56;5038623;28;20160;-78
2023/08/07 06:36:04;;;;;;;5.90;1.52;;;12.00;99.90;;;11.77;100.00;97768.03;5038111;28;20575;-78
2023/08/07 06:38:32;;;;;;;7.07;1.38;;;12.10;99.90;;;11.87;100.00;97781.47;5034140;28;20071;-78
2023/08/07 06:40:58;;;;;;;6.15;1.45;;;12.10;99.90;;;11.80;100.00;97780.06;5014970;28;20509;-78
2023/08/07 06:43:26;;;;;;;5.45;1.60;;;12.10;99.90;;;12.11;100.00;97782.13;5023604;28;20278;-78
2023/08/07 06:45:55;;;;;;;10.35;1.70;;;12.20;99.90;;;11.94;100.00;97777.72;5034733;28;20124;-78
2023/08/07 06:48:23;;;;;;;3.67;1.60;;;12.20;99.90;;;11.99;100.00;97783.53;5038847;28;20072;-78
2023/08/07 06:50:51;;;;;;;5.22;1.13;;;12.20;99.90;;;11.87;100.00;97773.66;5037952;28;20077;-78
2023/08/07 06:53:19;;;;;;;8.80;1.65;;;12.10;99.90;;;11.88;100.00;97773.66;5037456;28;20049;-78
2023/08/07 06:55:46;;;;;;;4.30;1.30;;;12.20;99.90;;;12.20;100.00;97776.53;5017826;28;20056;-78
2023/08/07 06:58:14;;;;;;;9.48;2.20;;;12.40;99.90;;;12.18;100.00;97780.97;5037902;28;20065;-78
2023/08/07 07:00:41;;;;;;;5.38;1.17;;;12.40;99.90;;;12.07;100.00;97791.03;5037463;28;20060;-78
2023/08/07 07:03:09;;;;;;;7.60;1.58;;;12.40;99.90;;;12.03;100.00;97789.47;5023075;28;20077;-78
2023/08/07 07:05:37;;;;;;;8.80;1.20;;;12.50;99.90;;;12.05;100.00;97803.25;5034185;28;20041;-78
2023/08/07 07:08:05;;;;;;;6.72;1.52;;;12.50;99.90;;;12.31;100.00;97784.69;5037613;28;20958;-78
2023/08/07 07:10:32;;;;;;;3.17;1.20;;;12.50;99.90;;;12.26;100.00;97780.59;5038386;28;20145;-78
2023/08/07 07:13:00;;;;;;;7.95;1.25;;;12.50;99.90;;;12.30;100.00;97784.75;5036744;28;20138;-78
2023/08/07 07:15:27;;;;;;;4.80;1.23;;;12.60;99.90;;;12.41;100.00;97773.88;5033569;28;20110;-77
2023/08/07 07:17:54;;;;;;;7.32;1.55;;;12.60;99.90;;;12.50;100.00;97778.63;5036350;28;20053;-78
2023/08/07 07:20:21;;;;;;;6.30;1.63;;;12.80;99.90;;;12.92;100.00;97778.31;5030006;28;20056;-77
2023/08/07 07:22:49;;;;;;;5.53;1.50;;;13.00;99.90;;;12.73;100.00;97780.16;5024133;28;20049;-78
2023/08/07 07:25:16;;;;;;;4.13;1.25;;;13.20;99.90;;;13.09;100.00;97771.44;5021007;28;20065;-78
2023/08/07 07:27:44;;;;;;;2.92;1.20;;;13.30;99.90;;;13.67;100.00;97771.13;5020623;28;20156;-77
2023/08/07 07:30:11;;;;;;;8.18;1.70;;;13.40;99.90;;;13.47;100.00;97766.09;5024498;28;20664;-78
2023/08/07 07:32:38;;;;;;;6.63;1.30;;;13.40;99.90;;;13.44;100.00;97768.88;5037277;28;20080;-78
2023/08/07 07:35:06;;;;;;;8.82;1.75;;;13.70;99.90;;;13.45;100.00;97779.19;5008268;28;20061;-78
2023/08/07 07:37:34;;;;;;;7.18;1.50;;;13.60;99.90;;;13.38;100.00;97768.22;5023111;28;20099;-78
2023/08/07 07:40:01;;;;;;;3.47;1.00;;;13.70;99.90;;;13.41;100.00;97766.41;5009030;28;20162;-78
2023/08/07 07:42:28;;;;;;;8.50;1.83;;;13.80;99.90;;;13.15;100.00;97766.75;5025084;28;20045;-78
2023/08/07 07:44:55;;;;;;;5.38;1.05;;;13.80;99.90;;;13.10;100.00;97780.94;5011219;28;20124;-78
2023/08/07 07:47:22;;;;;;;4.28;1.17;;;13.60;99.90;;;13.39;100.00;97776.91;5023466;28;20539;-78
2023/08/07 07:50:08;;;;;;;9.75;1.65;;;13.80;99.90;;;13.70;100.00;97785.75;5007264;28;20065;-78
2023/08/07 07:52:35;;;;;;;8.23;1.30;;;13.90;99.90;;;13.67;100.00;97758.06;5037334;28;20108;-78
2023/08/07 07:55:03;;;;;;;7.35;1.50;;;13.90;99.90;;;13.79;100.00;97772.25;5025830;28;20056;-78
2023/08/07 07:57:31;;;;;;;5.63;1.40;;;14.10;99.90;;;13.70;100.00;97775.34;5023686;28;20403;-78
2023/08/07 08:00:00;;;;;;;5.35;1.00;;;14.20;99.90;;;13.98;100.00;97762.53;5009644;28;20393;-78
2023/08/07 08:02:30;;;;;;;4.32;1.10;;;14.20;99.90;;;14.06;100.00;97764.72;5009455;28;20066;-78
2023/08/07 08:04:57;;;;;;;4.78;1.00;;;14.30;99.90;;;14.22;100.00;97778.63;5027268;28;20053;-78
2023/08/07 08:07:25;;;;;;;6.65;1.50;;;14.30;99.90;;;14.13;100.00;97766.06;5008012;28;20048;-78
2023/08/07 08:09:52;;;;;;;7.82;1.23;;;14.50;99.90;;;14.48;100.00;97768.50;5022948;28;20616;-78
2023/08/07 08:12:21;;;;;;;5.40;1.60;;;14.60;99.90;;;14.26;100.00;97770.66;5022809;28;20046;-78
2023/08/07 08:14:49;;;;;;;12.00;1.40;;;14.70;99.90;;;13.96;100.00;97780.03;5022771;28;20045;-78
2023/08/07 08:17:23;;;;;;;5.43;1.23;;;14.60;99.90;;;13.71;100.00;97788.31;5022204;28;20045;-78
2023/08/07 08:19:50;;;;;;;5.60;1.33;;;14.50;99.90;;;13.81;100.00;97784.28;5020459;28;20658;-78
2023/08/07 08:22:18;;;;;;;5.97;1.50;;;14.40;99.90;;;14.36;100.00;97784.88;5023515;28;20568;-78
2023/08/07 08:24:47;;;;;;;3.17;1.13;;;14.60;99.90;;;13.84;100.00;97787.66;5021149;28;20055;-78
2023/08/07 08:27:15;;;;;;;6.78;1.20;;;14.50;99.90;;;14.14;100.00;97793.00;5021175;28;20073;-78
2023/08/07 08:29:42;;;;;;;7.30;1.42;;;14.40;99.90;;;14.47;100.00;97794.75;5020975;28;20092;-78
2023/08/07 08:32:09;;;;;;;7.10;1.40;;;14.60;99.90;;;14.39;100.00;97789.91;5002017;28;20520;-78
2023/08/07 08:34:36;;;;;;;5.70;1.27;;;14.90;99.90;;;14.51;100.00;97807.53;5020034;28;20061;-78
2023/08/07 08:37:07;;;;;;;5.47;1.75;;;14.70;99.90;;;14.12;100.00;97807.94;5022103;28;20136;-79
2023/08/07 08:39:35;;;;;;;5.57;1.55;;;14.50;99.90;;;14.13;100.00;97796.56;5021313;28;20145;-78
2023/08/07 08:42:02;;;;;;;6.25;1.70;;;14.30;99.90;;;13.79;100.00;97786.13;5023811;28;20042;-78
2023/08/07 08:44:32;;;;;;;5.10;1.30;;;14.50;99.90;;;14.40;100.00;97794.22;5008248;28;20055;-78
2023/08/07 08:47:00;;;;;;;6.50;1.55;;;14.30;99.90;;;14.77;100.00;97790.44;5034033;28;20050;-79
2023/08/07 08:49:43;;;;;;;5.25;1.58;;;14.30;99.90;;;14.68;100.00;97796.19;5023219;28;20216;-78
2023/08/07 08:52:11;;;;;;;4.70;1.42;;;14.70;99.90;;;14.60;100.00;97796.63;5026423;28;20119;-77
2023/08/07 08:54:43;;;;;;;5.63;1.58;;;14.90;99.90;;;15.23;100.00;97786.97;5026208;28;20168;-79
2023/08/07 08:57:12;;;;;;;4.40;1.42;;;15.40;99.90;;;15.91;100.00;97783.00;5024184;28;20041;-78
2023/08/07 08:59:44;;;;;;;3.45;1.30;;;16.20;99.90;;;16.18;100.00;97786.53;5002321;28;20053;-78
2023/08/07 09:02:12;;;;;;;2.30;0.95;;;17.00;99.90;;;16.03;100.00;97787.47;5006935;28;20041;-77
2023/08/07 09:04:41;;;;;;;11.18;2.65;;;16.70;99.90;;;15.34;100.00;97768.88;5020139;28;20137;-78
2023/08/07 09:07:10;;;;;;;5.40;1.30;;;16.10;99.90;;;16.17;100.00;97794.47;5019010;28;20057;-78
2023/08/07 09:09:38;;;;;;;3.75;1.23;;;16.60;99.90;;;16.16;100.00;97782.34;5029801;28;20053;-78
2023/08/07 09:12:08;;;;;;;4.22;1.15;;;17.10;99.90;;;16.85;100.00;97789.31;5021564;28;20058;-78
2023/08/07 09:14:40;;;;;;;4.60;1.15;;;17.50;99.90;;;16.68;100.00;97779.88;5024199;28;20056;-78
2023/08/07 09:17:07;;;;;;;4.60;1.20;;;17.20;99.90;;;16.36;100.00;97791.59;5022990;28;20060;-79
2023/08/07 09:19:35;;;;;;;5.97;1.67;;;17.30;99.90;;;16.57;100.00;97776.28;5021428;28;20049;-79
2023/08/07 09:22:03;;;;;;;6.45;1.40;;;17.10;99.90;;;16.21;100.00;97801.22;5021272;28;20665;-78
2023/08/07 09:24:30;;;;;;;3.80;1.17;;;16.70;99.90;;;16.77;100.00;97791.56;5019402;28;20057;-77
2023/08/07 09:26:58;;;;;;;5.15;1.25;;;17.00;99.90;;;16.30;100.00;97790.16;5021747;28;20155;-77
2023/08/07 09:29:26;;;;;;;4.95;1.10;;;16.70;99.90;;;16.08;100.00;97801.16;5005858;28;20064;-77
2023/08/07 09:31:54;;;;;;;4.72;1.13;;;16.10;99.90;;;15.77;100.00;97805.63;5018367;28;20136;-76
2023/08/07 09:34:22;;;;;;;3.28;1.25;;;15.90;99.90;;;14.99;100.00;97791.84;5031543;28;20045;-76
2023/08/07 09:36:49;;;;;;;3.75;1.20;;;15.80;99.90;;;15.24;100.00;97797.34;5022196;28;20127;-77
2023/08/07 09:39:24;;;;;;;9.68;1.63;;;16.00;99.90;;;15.17;100.00;97803.03;5023343;28;20107;-77
2023/08/07 09:41:52;;;;;;;4.13;1.20;;;15.70;99.90;;;15.40;100.00;97805.16;5024121;28;20045;-78
2023/08/07 09:44:19;;;;;;;3.42;1.30;;;15.60;99.90;;;15.69;100.00;97805.19;5008007;28;20789;-77
2023/08/07 09:46:46;;;;;;;2.95;1.10;;;15.70;99.90;;;15.72;100.00;97799.81;5010831;28;20049;-77
2023/08/07 09:49:13;;;;;;;5.25;1.15;;;16.00;99.90;;;15.44;100.00;97798.81;5021156;28;20048;-78
2023/08/07 09:51:44;;;;;;;2.60;1.15;;;16.00;99.90;;;15.59;100.00;97798.84;5006531;28;20050;-77
2023/08/07 09:54:12;;;;;;;13.00;1.30;;;15.90;99.90;;;15.28;100.00;97813.72;5026369;28;20061;-77
2023/08/07 09:56:47;;;;;;;3.28;1.10;;;15.80;99.90;;;15.73;100.00;97822.44;5021707;28;20045;-77
2023/08/07 09:59:14;;;;;;;4.25;1.33;;;15.70;99.90;;;15.85;100.00;97815.63;5020318;28;20911;-77
2023/08/07 10:01:44;;;;;;;6.97;1.23;;;16.30;99.90;;;16.10;100.00;97815.84;5020459;28;20095;-78
2023/08/07 10:04:15;;;;;;;3.97;1.17;;;16.00;99.90;;;16.38;100.00;97815.91;5033135;28;20575;-78
2023/08/07 10:06:44;;;;;;;4.00;1.47;;;16.40;99.90;;;16.84;100.00;97795.50;5023521;28;20038;-78
2023/08/07 10:09:13;;;;;;;3.63;1.25;;;16.80;99.90;;;17.88;100.00;97803.50;5022100;28;20050;-78
2023/08/07 10:11:42;;;;;;;6.90;1.20;;;17.20;99.90;;;17.52;100.00;97812.91;5022966;28;20132;-78
2023/08/07 10:14:09;;;;;;;4.15;1.10;;;17.00;99.90;;;18.00;100.00;97804.44;5024309;28;20049;-77
2023/08/07 10:16:39;;;;;;;2.88;1.00;;;17.30;99.90;;;18.34;100.00;97802.94;5039634;28;20101;-77
2023/08/07 10:19:08;;;;;;;5.85;1.33;;;17.90;99.90;;;18.61;100.00;97809.81;5011094;28;20080;-77
2023/08/07 10:21:38;;;;;;;2.70;0.90;;;18.20;99.90;;;18.53;100.00;97805.06;5021082;28;20053;-77
2023/08/07 10:24:09;;;;;;;7.93;1.38;;;18.60;99.90;;;17.18;100.00;97826.56;5022367;28;20160;-77
2023/08/07 10:26:43;;;;;;;3.15;1.10;;;18.20;99.90;;;16.45;100.00;97825.91;5023558;28;20136;-76
2023/08/07 10:29:14;;;;;;;4.75;1.17;;;17.10;99.90;;;16.57;100.00;97834.75;5007874;28;20100;-76
2023/08/07 10:31:44;;;;;;;3.40;1.08;;;16.60;99.90;;;16.24;100.00;97830.69;5018483;28;20085;-76
2023/08/07 10:34:11;;;;;;;3.53;1.00;;;16.50;99.90;;;16.37;100.00;97815.03;5018998;28;20057;-75
2023/08/07 10:36:40;;;;;;;4.38;1.33;;;16.50;99.90;;;16.98;100.00;97828.69;5015846;28;20533;-75
2023/08/07 10:39:10;;;;;;;3.85;1.00;;;17.00;99.90;;;18.63;100.00;97818.41;5018451;28;20541;-77
2023/08/07 10:41:45;;;;;;;2.63;0.90;;;18.00;99.90;;;20.15;100.00;97804.47;5016135;28;20065;-76
2023/08/07 10:44:25;;;;;;;2.15;0.80;;;19.30;99.90;;;20.74;100.00;97792.81;5036092;28;20049;-73
2023/08/07 10:46:55;;;;;;;3.50;1.08;;;20.00;99.90;;;19.81;100.00;97808.88;5018729;28;20061;-77
2023/08/07 10:49:40;;;;;;;3.58;1.00;;;19.80;99.90;;;18.36;100.00;97816.78;5016309;28;20061;-76
2023/08/07 10:52:17;;;;;;;2.13;1.00;;;19.10;99.90;;;18.88;100.00;97814.88;5034083;28;20518;-76
2023/08/07 10:54:49;;;;;;;2.38;1.00;;;19.10;99.90;;;18.43;100.00;97813.72;5016990;28;20042;-76
2023/08/07 10:57:18;;;;;;;2.95;0.90;;;18.40;99.90;;;18.94;100.00;97810.97;5039452;28;20506;-77
2023/08/07 11:00:09;;;;;;;5.07;1.20;;;18.00;99.90;;;19.55;100.00;97811.69;5023024;28;20046;-77
2023/08/07 11:02:40;;;;;;;3.28;1.10;;;18.20;99.90;;;19.87;100.00;97810.22;5020472;28;20473;-76
2023/08/07 11:05:08;;;;;;;2.28;0.93;;;18.60;99.90;;;19.80;100.00;97823.03;5020333;28;20053;-77